Time;durP1;ratioP1;P1;durP2;ratioP2;P2;SDS_P1;SDS_P2;PMS_P1;PMS_P2;Temp;Humidity;BMP_temperature;BMP_pressure;BME280_temperature;BME280_humidity;BME280_pressure;Samples;Min_cycle;Max_cycle;Signal;HPM_P1;HPM_P2
2022/04/27 00:01:41;;;;;;;11.20;7.45;;;;;;;;;;4914342;29;20380;-65
2022/04/27 00:04:06;;;;;;;11.07;7.10;;;;;;;;;;4914626;29;20052;-64
2022/04/27 00:06:32;;;;;;;10.15;7.40;;;;;;;;;;4914794;29;20039;-64
2022/04/27 00:08:57;;;;;;;11.35;7.75;;;;;;;;;;4916612;29;20039;-65
2022/04/27 00:11:23;;;;;;;12.68;7.60;;;;;;;;;;4914300;29;20103;-65
2022/04/27 00:13:48;;;;;;;10.93;7.10;;;;;;;;;;4916066;28;20140;-67
2022/04/27 00:16:14;;;;;;;10.10;7.05;;;;;;;;;;4908058;29;20049;-65
2022/04/27 00:18:40;;;;;;;13.63;8.02;;;;;;;;;;4899068;29;20657;-65
2022/04/27 00:21:05;;;;;;;9.88;7.35;;;;;;;;;;4915494;29;20571;-65
2022/04/27 00:23:32;;;;;;;9.55;7.57;;;;;;;;;;4913078;29;20048;-64
2022/04/27 00:25:58;;;;;;;9.95;7.68;;;;;;;;;;4914127;29;20091;-64
2022/04/27 00:28:23;;;;;;;12.75;8.13;;;;;;;;;;4914271;29;20040;-64
2022/04/27 00:30:49;;;;;;;14.32;7.85;;;;;;;;;;4914254;29;20148;-66
2022/04/27 00:33:15;;;;;;;12.88;8.25;;;;;;;;;;4911448;29;20048;-65
2022/04/27 00:35:41;;;;;;;14.02;8.20;;;;;;;;;;4912782;29;20123;-65
2022/04/27 00:38:07;;;;;;;13.35;8.45;;;;;;;;;;4913590;29;20056;-64
2022/04/27 00:40:32;;;;;;;11.30;8.27;;;;;;;;;;4911270;29;20048;-64
2022/04/27 00:42:58;;;;;;;13.32;7.97;;;;;;;;;;4913279;29;20399;-64
2022/04/27 00:45:23;;;;;;;13.70;8.73;;;;;;;;;;4911063;29;20407;-66
2022/04/27 00:47:49;;;;;;;17.27;8.35;;;;;;;;;;4913291;29;20123;-65
2022/04/27 00:50:15;;;;;;;13.63;8.57;;;;;;;;;;4913289;29;20143;-64
2022/04/27 00:52:41;;;;;;;11.88;8.38;;;;;;;;;;4914649;29;20045;-65
2022/04/27 00:55:07;;;;;;;12.73;8.63;;;;;;;;;;4911953;29;20048;-64
2022/04/27 00:57:33;;;;;;;12.77;8.95;;;;;;;;;;4914288;29;20036;-65
2022/04/27 00:59:59;;;;;;;12.85;8.60;;;;;;;;;;4912979;29;20036;-63
2022/04/27 01:02:24;;;;;;;11.65;8.30;;;;;;;;;;4911120;29;20595;-66
2022/04/27 01:04:50;;;;;;;14.23;8.98;;;;;;;;;;4912342;29;20099;-65
2022/04/27 01:07:16;;;;;;;13.40;8.90;;;;;;;;;;4902754;29;20056;-65
2022/04/27 01:09:42;;;;;;;11.95;8.13;;;;;;;;;;4893112;29;20045;-64
2022/04/27 01:12:08;;;;;;;11.25;8.65;;;;;;;;;;4911335;29;20035;-65
2022/04/27 01:14:45;;;;;;;13.50;8.57;;;;;;;;;;4899670;29;20443;-65
2022/04/27 01:17:11;;;;;;;12.10;8.63;;;;;;;;;;4906526;29;20060;-65
2022/04/27 01:19:36;;;;;;;14.85;9.27;;;;;;;;;;4906524;29;20494;-66
2022/04/27 01:22:03;;;;;;;12.43;8.98;;;;;;;;;;4894242;29;20096;-64
2022/04/27 01:24:30;;;;;;;13.77;9.25;;;;;;;;;;4890001;29;20083;-72
2022/04/27 01:26:55;;;;;;;15.98;9.55;;;;;;;;;;4892987;29;20049;-71
2022/04/27 01:29:25;;;;;;;18.17;10.00;;;;;;;;;;4893636;29;20060;-72
2022/04/27 01:31:52;;;;;;;15.75;9.50;;;;;;;;;;4892958;29;20056;-74
2022/04/27 01:36:54;;;;;;;14.13;10.02;;;;;;;;;;5025133;23;20056;-57
2022/04/27 01:39:23;;;;;;;15.02;10.18;;;;;;;;;;4907882;29;20116;-55
2022/04/27 01:41:50;;;;;;;15.48;10.50;;;;;;;;;;4943795;28;20055;-57
2022/04/27 01:44:16;;;;;;;16.30;9.88;;;;;;;;;;4927731;28;20083;-58
2022/04/27 01:46:42;;;;;;;13.90;10.38;;;;;;;;;;4930169;28;20093;-58
2022/04/27 01:49:07;;;;;;;15.07;10.30;;;;;;;;;;4933014;28;20086;-58
2022/04/27 01:54:17;;;;;;;17.83;11.18;;;;;;;;;;4926675;29;20054;-58
2022/04/27 01:56:49;;;;;;;19.05;11.15;;;;;;;;;;4926898;28;20056;-58
2022/04/27 01:59:15;;;;;;;16.38;10.35;;;;;;;;;;4931137;28;20047;-58
2022/04/27 02:01:41;;;;;;;18.58;11.23;;;;;;;;;;4933452;28;20086;-58
2022/04/27 02:04:08;;;;;;;13.93;9.75;;;;;;;;;;4927366;28;20078;-64
2022/04/27 02:06:37;;;;;;;16.88;10.40;;;;;;;;;;4931777;29;20040;-59
2022/04/27 02:09:06;;;;;;;16.33;11.30;;;;;;;;;;4932908;29;20039;-59
2022/04/27 02:11:33;;;;;;;17.23;10.95;;;;;;;;;;4949793;28;20103;-58
2022/04/27 02:13:58;;;;;;;17.35;10.80;;;;;;;;;;4929700;28;20162;-57
2022/04/27 02:16:25;;;;;;;16.65;11.25;;;;;;;;;;4934225;29;20482;-57
2022/04/27 02:18:51;;;;;;;16.92;12.23;;;;;;;;;;4931581;28;20088;-60
2022/04/27 02:21:17;;;;;;;15.90;10.93;;;;;;;;;;4933610;28;20044;-57
2022/04/27 02:23:44;;;;;;;18.55;11.50;;;;;;;;;;4933999;29;20139;-58
2022/04/27 02:26:10;;;;;;;17.30;11.57;;;;;;;;;;4928183;29;20454;-59
2022/04/27 02:28:35;;;;;;;17.13;12.23;;;;;;;;;;4928537;28;20130;-57
2022/04/27 02:31:01;;;;;;;18.00;11.20;;;;;;;;;;4932164;28;20044;-58
2022/04/27 02:33:29;;;;;;;16.27;11.32;;;;;;;;;;4934381;29;20036;-58
2022/04/27 02:35:54;;;;;;;17.88;11.07;;;;;;;;;;4928653;28;20079;-58
2022/04/27 02:38:20;;;;;;;17.50;11.52;;;;;;;;;;4935888;28;20155;-59
2022/04/27 02:40:45;;;;;;;20.55;11.65;;;;;;;;;;4933389;28;20634;-54
2022/04/27 02:43:10;;;;;;;18.95;12.13;;;;;;;;;;4936402;28;20103;-52
2022/04/27 02:45:36;;;;;;;18.40;11.45;;;;;;;;;;4932496;29;20035;-55
2022/04/27 02:48:01;;;;;;;16.13;10.95;;;;;;;;;;4932761;28;20142;-55
2022/04/27 02:53:11;;;;;;;15.93;10.75;;;;;;;;;;4927911;29;20046;-55
2022/04/27 02:55:36;;;;;;;16.50;10.82;;;;;;;;;;4930438;28;20043;-54
2022/04/27 02:58:01;;;;;;;17.42;11.10;;;;;;;;;;4929235;29;20461;-54
2022/04/27 03:00:27;;;;;;;17.52;11.00;;;;;;;;;;4932515;29;21457;-55
2022/04/27 03:02:53;;;;;;;18.02;10.30;;;;;;;;;;4940408;29;20048;-56
2022/04/27 03:05:18;;;;;;;14.77;10.85;;;;;;;;;;4930511;28;20054;-54
2022/04/27 03:07:43;;;;;;;17.63;11.82;;;;;;;;;;4932735;28;21223;-55
2022/04/27 03:10:09;;;;;;;16.52;11.35;;;;;;;;;;4933281;28;20492;-54
2022/04/27 03:12:35;;;;;;;17.80;10.77;;;;;;;;;;4934739;29;20031;-57
2022/04/27 03:15:01;;;;;;;16.02;10.75;;;;;;;;;;4934634;28;20109;-55
2022/04/27 03:17:27;;;;;;;17.75;11.18;;;;;;;;;;4929036;28;20577;-55
2022/04/27 03:19:52;;;;;;;18.45;11.65;;;;;;;;;;4937876;28;20131;-55
2022/04/27 03:22:17;;;;;;;15.57;10.82;;;;;;;;;;4939050;28;20358;-54
2022/04/27 03:24:43;;;;;;;18.52;11.32;;;;;;;;;;4937111;28;20033;-52
2022/04/27 03:27:15;;;;;;;16.17;10.68;;;;;;;;;;4935827;29;20357;-53
2022/04/27 03:29:40;;;;;;;18.17;10.80;;;;;;;;;;4932716;29;20059;-57
2022/04/27 03:32:06;;;;;;;16.45;10.75;;;;;;;;;;4934705;28;20043;-52
2022/04/27 03:34:31;;;;;;;19.83;12.18;;;;;;;;;;4936082;29;20394;-54
2022/04/27 03:36:57;;;;;;;18.33;11.68;;;;;;;;;;4925047;28;20338;-53
2022/04/27 03:39:22;;;;;;;18.33;12.20;;;;;;;;;;4940988;29;20106;-54
2022/04/27 03:41:48;;;;;;;19.67;12.63;;;;;;;;;;4944643;28;20106;-53
2022/04/27 03:44:13;;;;;;;16.75;11.55;;;;;;;;;;4932843;29;20056;-53
2022/04/27 03:46:39;;;;;;;18.48;12.18;;;;;;;;;;4936118;28;20458;-56
2022/04/27 03:49:04;;;;;;;18.70;12.60;;;;;;;;;;4940416;28;20057;-49
2022/04/27 03:51:30;;;;;;;19.90;12.65;;;;;;;;;;4942624;29;20035;-55
2022/04/27 03:53:55;;;;;;;18.83;12.20;;;;;;;;;;4937175;28;20475;-54
2022/04/27 03:56:21;;;;;;;21.77;12.18;;;;;;;;;;4935577;28;20062;-56
2022/04/27 03:58:46;;;;;;;22.48;12.32;;;;;;;;;;4940645;28;20047;-56
2022/04/27 04:01:12;;;;;;;26.50;13.68;;;;;;;;;;4936582;29;20047;-57
2022/04/27 04:03:37;;;;;;;20.75;12.23;;;;;;;;;;4940136;29;20031;-55
2022/04/27 04:06:03;;;;;;;21.33;12.75;;;;;;;;;;4934313;28;20545;-53
2022/04/27 04:08:28;;;;;;;22.13;12.45;;;;;;;;;;4939849;28;20046;-54
2022/04/27 04:10:54;;;;;;;19.27;12.73;;;;;;;;;;4937967;28;20317;-55
2022/04/27 04:13:20;;;;;;;19.25;12.90;;;;;;;;;;4936922;28;20538;-50
2022/04/27 04:15:46;;;;;;;19.80;12.40;;;;;;;;;;4937203;28;20086;-55
2022/04/27 04:18:11;;;;;;;18.02;12.07;;;;;;;;;;4934229;29;20039;-56
2022/04/27 04:20:37;;;;;;;22.67;12.68;;;;;;;;;;4939680;28;20054;-56
2022/04/27 04:23:02;;;;;;;16.65;11.35;;;;;;;;;;4934004;28;20469;-55
2022/04/27 04:28:30;;;;;;;17.83;12.43;;;;;;;;;;4930489;28;20098;-54
2022/04/27 04:30:58;;;;;;;20.13;12.05;;;;;;;;;;4932380;28;20379;-59
2022/04/27 04:33:23;;;;;;;19.13;12.35;;;;;;;;;;4937747;28;20039;-55
2022/04/27 04:35:49;;;;;;;19.75;12.48;;;;;;;;;;4933817;28;20115;-53
2022/04/27 04:38:14;;;;;;;20.05;12.65;;;;;;;;;;4939083;28;20498;-52
2022/04/27 04:40:40;;;;;;;21.60;12.75;;;;;;;;;;4936289;28;20051;-57
2022/04/27 04:43:06;;;;;;;20.98;13.40;;;;;;;;;;4938738;29;20134;-55
2022/04/27 04:45:31;;;;;;;19.35;13.38;;;;;;;;;;4935277;28;20032;-59
2022/04/27 04:47:57;;;;;;;20.42;12.75;;;;;;;;;;4934140;28;20593;-53
2022/04/27 04:50:22;;;;;;;20.90;13.77;;;;;;;;;;4942461;28;20067;-55
2022/04/27 04:52:48;;;;;;;19.60;13.40;;;;;;;;;;4931378;28;20127;-57
2022/04/27 04:55:13;;;;;;;22.08;12.27;;;;;;;;;;4939982;28;20043;-56
2022/04/27 04:57:39;;;;;;;21.15;13.38;;;;;;;;;;4933471;28;20114;-59
2022/04/27 05:00:07;;;;;;;19.38;12.75;;;;;;;;;;4939267;29;20054;-55
2022/04/27 05:02:33;;;;;;;18.73;12.82;;;;;;;;;;4937219;28;20063;-57
2022/04/27 05:05:02;;;;;;;18.92;12.68;;;;;;;;;;4933630;28;20135;-56
2022/04/27 05:07:29;;;;;;;25.05;14.20;;;;;;;;;;4937700;29;20441;-55
2022/04/27 05:09:55;;;;;;;22.10;13.23;;;;;;;;;;4934491;29;20028;-56
2022/04/27 05:12:20;;;;;;;19.40;13.05;;;;;;;;;;4933973;29;20472;-63
2022/04/27 05:14:46;;;;;;;19.50;12.60;;;;;;;;;;4931795;28;20051;-63
2022/04/27 05:17:11;;;;;;;18.88;12.07;;;;;;;;;;4939969;28;20098;-62
2022/04/27 05:19:37;;;;;;;19.30;13.00;;;;;;;;;;4934480;29;20135;-63
2022/04/27 05:22:03;;;;;;;19.52;12.85;;;;;;;;;;4933843;28;20062;-63
2022/04/27 05:24:29;;;;;;;18.60;12.23;;;;;;;;;;4935321;28;20039;-62
2022/04/27 05:26:55;;;;;;;19.67;12.40;;;;;;;;;;4935622;28;20055;-63
2022/04/27 05:32:05;;;;;;;;;;;;;;;;;;4937263;28;20133;-62
2022/04/27 05:34:33;;;;;;;22.73;13.70;;;;;;;;;;4932027;28;19974;-62
2022/04/27 05:36:59;;;;;;;27.50;14.82;;;;;;;;;;4933770;29;20584;-62
2022/04/27 05:39:25;;;;;;;22.40;15.02;;;;;;;;;;4931563;29;20051;-62
2022/04/27 05:41:51;;;;;;;21.38;14.20;;;;;;;;;;4937936;28;20119;-61
2022/04/27 05:44:21;;;;;;;25.58;14.85;;;;;;;;;;4926343;29;20088;-61
2022/04/27 05:46:47;;;;;;;21.02;14.23;;;;;;;;;;4932494;28;20055;-63
2022/04/27 05:49:13;;;;;;;21.50;14.48;;;;;;;;;;4934541;28;20044;-61
2022/04/27 05:51:38;;;;;;;23.35;13.20;;;;;;;;;;4933310;28;20031;-66
2022/04/27 05:54:04;;;;;;;22.48;14.70;;;;;;;;;;4932254;29;20064;-63
2022/04/27 05:56:29;;;;;;;24.20;15.13;;;;;;;;;;4937771;28;20055;-63
2022/04/27 05:58:55;;;;;;;25.63;15.85;;;;;;;;;;4934779;28;20078;-62
2022/04/27 06:01:20;;;;;;;20.90;14.30;;;;;;;;;;4931818;28;20236;-63
2022/04/27 06:03:46;;;;;;;23.65;14.60;;;;;;;;;;4935963;28;20047;-63
2022/04/27 06:06:11;;;;;;;22.17;15.50;;;;;;;;;;4930320;29;20402;-62
2022/04/27 06:08:37;;;;;;;23.73;15.63;;;;;;;;;;4936438;28;20047;-62
2022/04/27 06:11:02;;;;;;;30.98;16.15;;;;;;;;;;4933641;28;20083;-62
2022/04/27 06:13:29;;;;;;;25.83;16.92;;;;;;;;;;4938510;28;20051;-62
2022/04/27 06:15:54;;;;;;;26.58;16.63;;;;;;;;;;4933814;28;20119;-63
2022/04/27 06:18:19;;;;;;;22.08;15.65;;;;;;;;;;4939575;29;20126;-61
2022/04/27 06:20:45;;;;;;;24.08;16.60;;;;;;;;;;4933512;28;20054;-62
2022/04/27 06:23:10;;;;;;;35.55;15.95;;;;;;;;;;4934244;28;20043;-62
2022/04/27 06:25:39;;;;;;;21.70;15.52;;;;;;;;;;4930416;28;20071;-62
2022/04/27 06:28:04;;;;;;;21.65;15.60;;;;;;;;;;4940541;28;20417;-62
2022/04/27 06:30:30;;;;;;;22.20;15.70;;;;;;;;;;4927123;29;20028;-61
2022/04/27 06:32:55;;;;;;;22.13;16.00;;;;;;;;;;4939144;28;20482;-60
2022/04/27 06:35:21;;;;;;;24.45;15.80;;;;;;;;;;4931744;28;20052;-62
2022/04/27 06:37:46;;;;;;;21.05;15.48;;;;;;;;;;4949296;28;20121;-61
2022/04/27 06:40:12;;;;;;;23.67;14.90;;;;;;;;;;4937521;28;20067;-61
2022/04/27 06:42:42;;;;;;;22.77;15.55;;;;;;;;;;4935319;28;20062;-61
2022/04/27 06:45:08;;;;;;;32.97;17.60;;;;;;;;;;4935306;29;20118;-62
2022/04/27 06:47:34;;;;;;;23.65;14.82;;;;;;;;;;4940382;28;20050;-61
2022/04/27 06:49:59;;;;;;;25.15;14.13;;;;;;;;;;4928098;28;20091;-61
2022/04/27 06:52:25;;;;;;;23.00;15.25;;;;;;;;;;4934033;28;20055;-61
2022/04/27 06:54:50;;;;;;;17.85;13.55;;;;;;;;;;4937743;28;20038;-63
2022/04/27 06:57:15;;;;;;;20.60;14.52;;;;;;;;;;4937994;28;20040;-62
2022/04/27 06:59:41;;;;;;;18.67;13.60;;;;;;;;;;4932644;29;20044;-62
2022/04/27 07:02:09;;;;;;;19.23;13.63;;;;;;;;;;4941889;28;20078;-62
2022/04/27 07:04:36;;;;;;;26.73;15.23;;;;;;;;;;4936657;28;20066;-61
2022/04/27 07:07:02;;;;;;;19.45;13.98;;;;;;;;;;4939403;28;20039;-60
2022/04/27 07:09:29;;;;;;;18.00;12.98;;;;;;;;;;4940235;29;20131;-63
2022/04/27 07:11:55;;;;;;;17.13;12.75;;;;;;;;;;4942847;28;20078;-61
2022/04/27 07:14:21;;;;;;;16.73;13.18;;;;;;;;;;4930578;28;20184;-61
2022/04/27 07:16:46;;;;;;;15.02;12.40;;;;;;;;;;4933436;28;20149;-63
2022/04/27 07:19:12;;;;;;;17.38;12.73;;;;;;;;;;4941191;28;20354;-60
2022/04/27 07:21:38;;;;;;;16.85;12.07;;;;;;;;;;4950214;28;20118;-61
2022/04/27 07:24:04;;;;;;;19.20;12.85;;;;;;;;;;4941388;29;20039;-61
2022/04/27 07:26:31;;;;;;;19.02;13.25;;;;;;;;;;4933730;28;20545;-61
2022/04/27 07:28:56;;;;;;;25.92;13.07;;;;;;;;;;4959206;28;20382;-63
2022/04/27 07:31:22;;;;;;;24.23;12.95;;;;;;;;;;4936272;29;20058;-61
2022/04/27 07:33:48;;;;;;;22.50;12.43;;;;;;;;;;4939560;28;20135;-61
2022/04/27 07:36:13;;;;;;;19.02;13.50;;;;;;;;;;4933792;29;20043;-62
2022/04/27 07:38:39;;;;;;;25.55;13.20;;;;;;;;;;4938089;28;20079;-60
2022/04/27 07:41:05;;;;;;;18.27;12.85;;;;;;;;;;4930589;28;20047;-62
2022/04/27 07:43:31;;;;;;;20.17;13.32;;;;;;;;;;4934401;28;20058;-62
2022/04/27 07:45:56;;;;;;;20.60;12.88;;;;;;;;;;4936360;28;20031;-61
2022/04/27 07:48:22;;;;;;;16.27;11.73;;;;;;;;;;4948575;28;20043;-61
2022/04/27 07:50:47;;;;;;;18.75;12.05;;;;;;;;;;4939731;28;20084;-61
2022/04/27 07:53:13;;;;;;;22.30;12.70;;;;;;;;;;4932337;28;20055;-60
2022/04/27 07:55:38;;;;;;;17.90;12.32;;;;;;;;;;4939124;28;20059;-61
2022/04/27 07:58:04;;;;;;;21.65;12.27;;;;;;;;;;4952594;28;20163;-62
2022/04/27 08:00:30;;;;;;;19.52;12.60;;;;;;;;;;4940711;29;20086;-61
2022/04/27 08:02:55;;;;;;;28.15;13.48;;;;;;;;;;4941171;28;20040;-61
2022/04/27 08:05:21;;;;;;;19.52;12.93;;;;;;;;;;4939334;28;20056;-61
2022/04/27 08:07:46;;;;;;;17.58;12.20;;;;;;;;;;4934671;28;20098;-61
2022/04/27 08:10:21;;;;;;;15.13;11.75;;;;;;;;;;4936373;28;20422;-61
2022/04/27 08:12:49;;;;;;;17.17;10.88;;;;;;;;;;4935450;28;20046;-61
2022/04/27 08:15:22;;;;;;;13.85;10.82;;;;;;;;;;4941169;28;20031;-60
2022/04/27 08:17:53;;;;;;;15.30;10.48;;;;;;;;;;4935206;29;20607;-61
2022/04/27 08:23:13;;;;;;;15.27;10.00;;;;;;;;;;4936883;28;20065;-61
2022/04/27 08:25:38;;;;;;;15.07;10.15;;;;;;;;;;4928544;28;20108;-61
2022/04/27 08:28:08;;;;;;;11.32;8.38;;;;;;;;;;4926287;28;20122;-61
2022/04/27 08:30:39;;;;;;;14.82;8.38;;;;;;;;;;4925040;29;20024;-60
2022/04/27 08:33:05;;;;;;;13.23;7.85;;;;;;;;;;4935675;29;20051;-61
2022/04/27 08:35:32;;;;;;;11.90;8.25;;;;;;;;;;4936998;28;20490;-60
2022/04/27 08:37:58;;;;;;;14.00;8.10;;;;;;;;;;4952453;28;20055;-60
2022/04/27 08:40:24;;;;;;;13.52;8.20;;;;;;;;;;4933188;28;20126;-61
2022/04/27 08:42:53;;;;;;;14.60;8.73;;;;;;;;;;4937082;29;20114;-61
2022/04/27 08:45:19;;;;;;;13.85;9.52;;;;;;;;;;4935784;29;20114;-60
2022/04/27 08:47:50;;;;;;;14.57;9.40;;;;;;;;;;4931679;28;20055;-61
2022/04/27 08:50:20;;;;;;;14.98;8.18;;;;;;;;;;4933139;28;20051;-62
2022/04/27 08:52:47;;;;;;;11.35;8.07;;;;;;;;;;4930849;28;20379;-60
2022/04/27 08:55:13;;;;;;;10.48;7.80;;;;;;;;;;4938302;28;20047;-61
2022/04/27 08:57:39;;;;;;;11.63;8.23;;;;;;;;;;4949657;28;20035;-61
2022/04/27 09:00:11;;;;;;;14.27;7.78;;;;;;;;;;4933438;29;20043;-61
2022/04/27 09:02:36;;;;;;;12.45;7.72;;;;;;;;;;4937593;29;20047;-61
2022/04/27 09:05:15;;;;;;;9.93;8.05;;;;;;;;;;4937966;29;20048;-61
2022/04/27 09:07:46;;;;;;;10.90;7.95;;;;;;;;;;4944532;28;20055;-62
2022/04/27 09:10:17;;;;;;;13.43;8.77;;;;;;;;;;4933099;29;20047;-61
2022/04/27 09:12:47;;;;;;;11.68;8.10;;;;;;;;;;4934774;28;20662;-62
2022/04/27 09:15:14;;;;;;;11.35;8.00;;;;;;;;;;4933721;29;20041;-59
2022/04/27 09:23:24;;;;;;;10.90;7.22;;;;;;;;;;4932327;28;20107;-60
2022/04/27 09:25:57;;;;;;;11.35;7.50;;;;;;;;;;4937258;29;20484;-59
2022/04/27 09:28:25;;;;;;;10.70;7.25;;;;;;;;;;4937760;28;20143;-60
2022/04/27 09:30:51;;;;;;;12.38;8.20;;;;;;;;;;4933909;28;20055;-60
2022/04/27 09:33:30;;;;;;;11.90;8.07;;;;;;;;;;4935791;28;20138;-62
2022/04/27 09:35:56;;;;;;;10.70;7.28;;;;;;;;;;4938125;28;20047;-60
2022/04/27 09:38:22;;;;;;;9.85;7.07;;;;;;;;;;4935795;28;20557;-61
2022/04/27 09:40:53;;;;;;;9.63;7.35;;;;;;;;;;4933472;28;20120;-60
2022/04/27 09:43:45;;;;;;;10.55;7.20;;;;;;;;;;4935140;28;20410;-60
2022/04/27 09:46:25;;;;;;;13.70;7.65;;;;;;;;;;4927851;28;20082;-59
2022/04/27 09:49:09;;;;;;;11.65;7.30;;;;;;;;;;4938151;28;20043;-60
2022/04/27 09:51:35;;;;;;;10.65;7.80;;;;;;;;;;4935614;29;20363;-60
2022/04/27 09:54:03;;;;;;;10.75;7.50;;;;;;;;;;4932858;29;20127;-60
2022/04/27 09:56:33;;;;;;;15.20;6.95;;;;;;;;;;4937912;28;20477;-60
2022/04/27 09:59:09;;;;;;;12.52;7.28;;;;;;;;;;4934701;28;20494;-60
2022/04/27 10:01:36;;;;;;;12.57;7.18;;;;;;;;;;4932304;28;20131;-60
2022/04/27 10:04:04;;;;;;;9.55;7.07;;;;;;;;;;4929683;29;20327;-61
2022/04/27 10:06:34;;;;;;;9.80;6.97;;;;;;;;;;4934616;29;20036;-61
2022/04/27 10:09:02;;;;;;;10.00;6.88;;;;;;;;;;4930463;28;20150;-61
2022/04/27 10:11:29;;;;;;;8.45;6.70;;;;;;;;;;4929120;28;20056;-61
2022/04/27 10:13:55;;;;;;;12.93;7.97;;;;;;;;;;4932515;28;20122;-61
2022/04/27 10:16:22;;;;;;;10.25;7.30;;;;;;;;;;4932143;29;20056;-61
2022/04/27 10:18:49;;;;;;;12.63;7.70;;;;;;;;;;4931575;28;20027;-61
2022/04/27 10:21:56;;;;;;;9.23;6.65;;;;;;;;;;4937282;29;20035;-60
2022/04/27 10:24:33;;;;;;;9.95;5.95;;;;;;;;;;4937281;29;20063;-61
2022/04/27 10:27:18;;;;;;;9.95;6.90;;;;;;;;;;4936150;29;20062;-61
2022/04/27 10:29:46;;;;;;;10.60;6.28;;;;;;;;;;4931166;29;20537;-60
2022/04/27 10:32:11;;;;;;;9.85;6.35;;;;;;;;;;4937966;28;20047;-59
2022/04/27 10:34:37;;;;;;;7.80;6.38;;;;;;;;;;4940724;28;20044;-60
2022/04/27 10:37:03;;;;;;;8.88;7.15;;;;;;;;;;4938421;28;20408;-60
2022/04/27 10:39:33;;;;;;;10.70;6.55;;;;;;;;;;4937006;29;20027;-61
2022/04/27 10:42:04;;;;;;;8.18;6.43;;;;;;;;;;4937059;29;20046;-60
2022/04/27 10:44:51;;;;;;;8.98;6.43;;;;;;;;;;4938511;28;20044;-60
2022/04/27 10:47:21;;;;;;;11.10;6.95;;;;;;;;;;4934437;29;20074;-60
2022/04/27 10:50:13;;;;;;;7.68;6.45;;;;;;;;;;4937854;28;20096;-61
2022/04/27 10:52:53;;;;;;;8.83;6.73;;;;;;;;;;4934611;28;20477;-62
2022/04/27 10:55:43;;;;;;;8.85;6.80;;;;;;;;;;4931533;28;20099;-62
2022/04/27 10:58:16;;;;;;;9.52;6.10;;;;;;;;;;4945543;28;20453;-61
2022/04/27 11:01:05;;;;;;;8.13;5.88;;;;;;;;;;4929573;29;20096;-61
2022/04/27 11:03:35;;;;;;;8.18;5.68;;;;;;;;;;4927417;29;20058;-64
2022/04/27 11:06:02;;;;;;;8.82;5.55;;;;;;;;;;4930296;28;20051;-62
2022/04/27 11:08:43;;;;;;;7.10;5.55;;;;;;;;;;4932271;28;21051;-59
2022/04/27 11:11:09;;;;;;;8.98;5.88;;;;;;;;;;4932985;28;20413;-61
2022/04/27 11:13:36;;;;;;;7.80;4.78;;;;;;;;;;4932074;28;20143;-61
2022/04/27 11:16:19;;;;;;;6.18;4.38;;;;;;;;;;4930517;28;20067;-60
2022/04/27 11:18:52;;;;;;;6.03;4.28;;;;;;;;;;4932008;28;20032;-61
2022/04/27 11:21:18;;;;;;;6.07;3.58;;;;;;;;;;4932186;29;20043;-61
2022/04/27 11:23:44;;;;;;;8.38;4.18;;;;;;;;;;4932086;28;20048;-61
2022/04/27 11:26:10;;;;;;;7.93;3.70;;;;;;;;;;4933236;28;20035;-60
2022/04/27 11:28:40;;;;;;;3.90;2.97;;;;;;;;;;4930767;28;20126;-60
2022/04/27 11:31:06;;;;;;;4.90;3.47;;;;;;;;;;4933110;28;20122;-60
2022/04/27 11:33:34;;;;;;;6.32;3.85;;;;;;;;;;4932846;29;20115;-60
2022/04/27 11:35:59;;;;;;;8.40;4.15;;;;;;;;;;4930672;29;20521;-61
2022/04/27 11:38:36;;;;;;;5.85;3.65;;;;;;;;;;4932935;28;20127;-60
2022/04/27 11:41:02;;;;;;;7.25;3.85;;;;;;;;;;4931991;28;20056;-60
2022/04/27 11:43:32;;;;;;;6.85;3.45;;;;;;;;;;4925214;29;20098;-60
2022/04/27 11:45:58;;;;;;;4.07;3.42;;;;;;;;;;4927821;29;21147;-60
2022/04/27 11:48:27;;;;;;;7.78;4.00;;;;;;;;;;4933331;29;20036;-61
2022/04/27 11:50:55;;;;;;;9.82;3.47;;;;;;;;;;4930723;28;20048;-59
2022/04/27 11:53:21;;;;;;;5.22;3.22;;;;;;;;;;4929046;29;20474;-59
2022/04/27 11:55:50;;;;;;;3.28;2.70;;;;;;;;;;4932772;28;20142;-62
2022/04/27 11:58:23;;;;;;;5.50;2.80;;;;;;;;;;4930796;28;20067;-61
2022/04/27 12:00:51;;;;;;;5.22;3.08;;;;;;;;;;4929014;28;20035;-61
2022/04/27 12:03:18;;;;;;;9.80;4.10;;;;;;;;;;4932129;29;20042;-61
2022/04/27 12:05:51;;;;;;;5.47;2.88;;;;;;;;;;4931648;29;20047;-62
2022/04/27 12:08:21;;;;;;;1.63;1.30;;;;;;;;;;4924474;29;20048;-62
2022/04/27 12:10:46;;;;;;;3.22;1.75;;;;;;;;;;4933358;28;20080;-62
2022/04/27 12:13:14;;;;;;;5.95;2.20;;;;;;;;;;4928527;28;20043;-59
2022/04/27 12:15:41;;;;;;;2.90;2.65;;;;;;;;;;4929717;28;20036;-62
2022/04/27 12:18:13;;;;;;;7.72;3.00;;;;;;;;;;4932903;29;20094;-62
2022/04/27 12:20:40;;;;;;;2.75;2.08;;;;;;;;;;4917932;29;20059;-61
2022/04/27 12:23:13;;;;;;;3.58;2.38;;;;;;;;;;4944046;28;20336;-62
2022/04/27 12:25:43;;;;;;;3.33;2.03;;;;;;;;;;4926767;28;20076;-61
2022/04/27 12:28:15;;;;;;;3.15;1.90;;;;;;;;;;4945138;28;20101;-61
2022/04/27 12:30:53;;;;;;;3.20;2.10;;;;;;;;;;4928218;29;20024;-63
2022/04/27 12:33:26;;;;;;;3.03;1.90;;;;;;;;;;4933689;29;20040;-62
2022/04/27 12:38:38;;;;;;;4.82;2.15;;;;;;;;;;4929249;28;20062;-60
2022/04/27 12:41:04;;;;;;;4.88;2.67;;;;;;;;;;4928211;29;20039;-60
2022/04/27 12:43:31;;;;;;;6.32;2.60;;;;;;;;;;4929885;28;20040;-60
2022/04/27 12:46:08;;;;;;;4.35;2.53;;;;;;;;;;4930974;28;20028;-63
2022/04/27 12:48:35;;;;;;;5.53;2.40;;;;;;;;;;4932625;29;20032;-60
2022/04/27 12:51:02;;;;;;;3.53;2.17;;;;;;;;;;4932595;28;20064;-60
2022/04/27 12:53:27;;;;;;;3.78;2.22;;;;;;;;;;4927164;28;20129;-62
2022/04/27 12:56:02;;;;;;;4.03;2.53;;;;;;;;;;4930424;28;20075;-60
2022/04/27 12:58:28;;;;;;;3.38;2.05;;;;;;;;;;4929728;28;20438;-60
2022/04/27 13:00:53;;;;;;;3.85;1.85;;;;;;;;;;4927543;28;20067;-60
2022/04/27 13:03:28;;;;;;;2.38;2.17;;;;;;;;;;5060417;28;20427;-60
2022/04/27 13:05:53;;;;;;;2.20;1.70;;;;;;;;;;5031260;28;20169;-60
2022/04/27 13:08:19;;;;;;;3.95;2.40;;;;;;;;;;5036683;28;20045;-60
2022/04/27 13:13:30;;;;;;;3.65;2.50;;;;;;;;;;5046084;28;20056;-61
2022/04/27 13:15:56;;;;;;;3.78;2.38;;;;;;;;;;5036410;28;20042;-61
2022/04/27 13:18:22;;;;;;;3.22;2.13;;;;;;;;;;5041832;28;20086;-60
2022/04/27 13:20:51;;;;;;;2.35;2.15;;;;;;;;;;5042575;28;20033;-61
2022/04/27 13:23:18;;;;;;;3.72;2.80;;;;;;;;;;5036260;28;20049;-60
2022/04/27 13:25:43;;;;;;;6.68;2.58;;;;;;;;;;5044357;28;20096;-61
2022/04/27 13:28:09;;;;;;;4.88;2.38;;;;;;;;;;5043119;28;20508;-61
2022/04/27 13:30:35;;;;;;;3.13;2.38;;;;;;;;;;5044045;28;20608;-61
2022/04/27 13:33:01;;;;;;;2.33;1.90;;;;;;;;;;5037502;28;20057;-61
2022/04/27 13:35:27;;;;;;;5.70;2.20;;;;;;;;;;5039238;28;20815;-61
2022/04/27 13:37:52;;;;;;;5.25;2.13;;;;;;;;;;5043388;28;20440;-61
2022/04/27 13:40:18;;;;;;;5.03;2.08;;;;;;;;;;5043186;28;20476;-60
2022/04/27 13:42:43;;;;;;;3.42;2.40;;;;;;;;;;5044514;28;20467;-61
2022/04/27 13:45:14;;;;;;;2.22;2.03;;;;;;;;;;5042245;28;20049;-61
2022/04/27 13:47:40;;;;;;;3.80;1.88;;;;;;;;;;5041658;28;20095;-60
2022/04/27 13:50:06;;;;;;;5.45;2.03;;;;;;;;;;5045162;28;20061;-60
2022/04/27 13:52:32;;;;;;;1.65;1.55;;;;;;;;;;5044957;28;20057;-61
2022/04/27 13:54:59;;;;;;;2.90;1.70;;;;;;;;;;5044484;28;20045;-60
2022/04/27 13:57:25;;;;;;;2.28;1.90;;;;;;;;;;5040495;28;20140;-60
2022/04/27 13:59:51;;;;;;;5.15;1.85;;;;;;;;;;5044377;28;20111;-60
2022/04/27 14:02:17;;;;;;;3.05;1.92;;;;;;;;;;5046335;28;20732;-60
2022/04/27 14:04:43;;;;;;;2.30;1.75;;;;;;;;;;5043809;28;20386;-60
2022/04/27 14:07:08;;;;;;;2.35;1.80;;;;;;;;;;5042890;28;20109;-60
2022/04/27 14:09:34;;;;;;;4.22;1.90;;;;;;;;;;5042633;28;20463;-60
2022/04/27 14:14:43;;;;;;;4.72;2.00;;;;;;;;;;5030955;28;20155;-60
2022/04/27 14:19:52;;;;;;;2.30;1.83;;;;;;;;;;5026153;28;20096;-59
2022/04/27 14:22:18;;;;;;;3.15;2.17;;;;;;;;;;5030173;28;20033;-61
2022/04/27 14:24:44;;;;;;;2.20;1.50;;;;;;;;;;5031122;28;20464;-62
2022/04/27 14:27:10;;;;;;;4.35;1.63;;;;;;;;;;5031656;28;20152;-60
2022/04/27 14:29:36;;;;;;;3.17;1.70;;;;;;;;;;5028242;28;20075;-62
2022/04/27 14:32:02;;;;;;;3.28;1.52;;;;;;;;;;5029305;28;20054;-59
2022/04/27 14:34:30;;;;;;;3.53;1.48;;;;;;;;;;5026692;28;20021;-62
2022/04/27 14:36:56;;;;;;;3.88;1.40;;;;;;;;;;5031025;28;20029;-62
2022/04/27 14:39:22;;;;;;;2.75;1.20;;;;;;;;;;5030485;28;20088;-60
2022/04/27 14:41:48;;;;;;;1.60;1.45;;;;;;;;;;5025578;28;20062;-61
2022/04/27 14:44:14;;;;;;;4.68;1.90;;;;;;;;;;5029714;28;20049;-60
2022/04/27 14:46:39;;;;;;;2.22;1.50;;;;;;;;;;5028805;28;20068;-60
2022/04/27 14:49:05;;;;;;;2.10;1.42;;;;;;;;;;5029014;28;20037;-61
2022/04/27 14:51:31;;;;;;;1.80;1.50;;;;;;;;;;5026923;28;20098;-60
2022/04/27 14:53:58;;;;;;;3.17;1.60;;;;;;;;;;5028574;28;20033;-60
2022/04/27 14:56:23;;;;;;;3.33;1.10;;;;;;;;;;5027590;28;20053;-61
2022/04/27 14:58:48;;;;;;;2.53;1.40;;;;;;;;;;5026446;28;20459;-60
2022/04/27 15:01:14;;;;;;;2.83;1.50;;;;;;;;;;5030282;28;20120;-60
2022/04/27 15:03:39;;;;;;;2.25;1.70;;;;;;;;;;5024073;28;20021;-60